createdAt,value
2022-10-11T00:00:35.548Z,100158.97
2022-10-11T00:02:38.015Z,100156.44
2022-10-11T00:04:40.023Z,100159.75
2022-10-11T00:06:43.833Z,100158.78
2022-10-11T00:08:46.182Z,100158.69
2022-10-11T00:11:03.380Z,100147.22
2022-10-11T00:13:06.595Z,100153.44
2022-10-11T00:15:12.458Z,100147.22
2022-10-11T00:17:14.849Z,100149.06
2022-10-11T00:19:17.745Z,100150.81
2022-10-11T00:21:21.153Z,100147.41
2022-10-11T00:23:23.264Z,100151.78
2022-10-11T00:25:25.658Z,100146.34
2022-10-11T00:27:28.315Z,100151.88
2022-10-11T00:29:30.202Z,100148.34
2022-10-11T00:31:35.620Z,100151.06
2022-10-11T00:33:38.487Z,100157.66
2022-10-11T00:35:41.958Z,100147.66
2022-10-11T00:37:44.232Z,100152.28
2022-10-11T00:39:46.487Z,100154.22
2022-10-11T00:41:49.560Z,100151.50
2022-10-11T00:44:12.142Z,100156.50
2022-10-11T00:46:14.297Z,100157.19
2022-10-11T00:48:23.419Z,100158.53
2022-10-11T00:50:28.455Z,100160.25
2022-10-11T00:52:35.309Z,100153.16
2022-10-11T00:54:41.093Z,100157.63
2022-10-11T00:56:46.077Z,100154.47
2022-10-11T00:58:48.642Z,100149.00
2022-10-11T01:00:51.297Z,100148.56
2022-10-11T01:02:54.191Z,100154.88
2022-10-11T01:05:17.935Z,100147.94
2022-10-11T01:07:20.524Z,100146.34
2022-10-11T01:09:23.176Z,100151.28
2022-10-11T01:11:29.552Z,100147.38
2022-10-11T01:13:50.269Z,100146.03
2022-10-11T01:16:12.933Z,100148.28
2022-10-11T01:18:26.510Z,100144.59
2022-10-11T01:20:32.131Z,100146.09
2022-10-11T01:22:58.834Z,100138.31
2022-10-11T01:25:16.156Z,100140.84
2022-10-11T01:27:29.964Z,100134.09
2022-10-11T01:30:15.327Z,100134.47
2022-10-11T01:32:24.924Z,100131.66
2022-10-11T01:34:32.389Z,100131.66
2022-10-11T01:36:49.791Z,100130.84
2022-10-11T01:38:58.731Z,100123.75
2022-10-11T01:41:07.560Z,100121.94
2022-10-11T01:43:10.616Z,100121.06
2022-10-11T01:45:17.913Z,100115.91
2022-10-11T01:47:21.853Z,100118.19
2022-10-11T01:49:24.041Z,100117.06
2022-10-11T01:51:32.423Z,100122.72
2022-10-11T01:53:56.384Z,100117.88
2022-10-11T01:56:21.578Z,100113.09
2022-10-11T01:58:42.903Z,100117.63
2022-10-11T02:00:56.732Z,100113.72
2022-10-11T02:02:59.070Z,100116.34
2022-10-11T02:05:09.430Z,100117.41
2022-10-11T02:07:15.422Z,100115.00
2022-10-11T02:09:31.711Z,100122.72
2022-10-11T02:11:35.132Z,100117.41
2022-10-11T02:13:46.513Z,100126.34
2022-10-11T02:15:51.724Z,100116.91
2022-10-11T02:17:59.809Z,100120.75
2022-10-11T02:20:09.153Z,100121.41
2022-10-11T02:22:19.608Z,100119.63
2022-10-11T02:24:32.458Z,100118.91
2022-10-11T02:26:36.179Z,100121.41
2022-10-11T02:28:41.876Z,100121.75
2022-10-11T02:30:47.825Z,100119.66
2022-10-11T02:32:52.976Z,100117.19
2022-10-11T02:34:57.693Z,100119.56
2022-10-11T02:37:04.823Z,100117.41
2022-10-11T02:39:15.324Z,100115.28
2022-10-11T02:41:29.924Z,100114.72
2022-10-11T02:43:41.792Z,100117.19
2022-10-11T02:45:49.327Z,100112.91
2022-10-11T02:47:51.563Z,100113.94
2022-10-11T02:49:53.814Z,100112.78
2022-10-11T02:51:57.208Z,100115.38
2022-10-11T02:53:59.560Z,100113.31
2022-10-11T02:56:01.617Z,100114.19
2022-10-11T02:58:03.959Z,100121.69
2022-10-11T03:00:14.331Z,100117.63
2022-10-11T03:02:16.616Z,100116.59
2022-10-11T03:04:18.769Z,100113.06
2022-10-11T03:06:21.092Z,100118.44
2022-10-11T03:08:23.187Z,100121.22
2022-10-11T03:10:26.073Z,100114.81
2022-10-11T03:12:28.026Z,100115.72
2022-10-11T03:14:30.267Z,100119.38
2022-10-11T03:16:32.165Z,100114.81
2022-10-11T03:18:34.246Z,100124.81
2022-10-11T03:20:36.239Z,100121.47
2022-10-11T03:22:38.406Z,100122.19
2022-10-11T03:24:40.511Z,100122.09
2022-10-11T03:26:42.556Z,100122.25
2022-10-11T03:28:44.834Z,100119.94
2022-10-11T03:30:51.037Z,100121.94
2022-10-11T03:32:53.059Z,100123.75
2022-10-11T03:34:55.093Z,100117.41
2022-10-11T03:36:57.179Z,100116.34
2022-10-11T03:39:00.399Z,100117.06
2022-10-11T03:41:02.529Z,100115.16
2022-10-11T03:43:04.489Z,100117.00
2022-10-11T03:45:09.184Z,100123.44
2022-10-11T03:47:11.123Z,100114.44
2022-10-11T03:49:13.122Z,100118.91
2022-10-11T03:51:15.822Z,100115.78
2022-10-11T03:53:17.964Z,100118.63
2022-10-11T03:55:20.289Z,100114.13
2022-10-11T03:57:23.513Z,100112.56
2022-10-11T03:59:26.983Z,100111.50
2022-10-11T04:01:29.066Z,100117.09
2022-10-11T04:03:31.150Z,100112.00
2022-10-11T04:05:33.301Z,100122.78
2022-10-11T04:07:35.475Z,100118.13
2022-10-11T04:09:37.433Z,100119.16
2022-10-11T04:11:39.840Z,100120.78
2022-10-11T04:13:41.941Z,100107.44
2022-10-11T04:15:44.064Z,100106.34
2022-10-11T04:17:46.003Z,100113.31
2022-10-11T04:19:48.494Z,100116.03
2022-10-11T04:21:50.797Z,100116.16
2022-10-11T04:23:52.860Z,100125.16
2022-10-11T04:25:55.086Z,100107.13
2022-10-11T04:27:57.349Z,100103.63
2022-10-11T04:29:59.853Z,100099.13
2022-10-11T04:32:02.001Z,100105.72
2022-10-11T04:34:04.343Z,100112.16
2022-10-11T04:36:07.131Z,100108.72
2022-10-11T04:38:10.212Z,100116.78
2022-10-11T04:40:12.683Z,100112.06
2022-10-11T04:42:14.661Z,100114.41
2022-10-11T04:44:16.629Z,100109.06
2022-10-11T04:46:18.920Z,100115.19
2022-10-11T04:48:21.054Z,100114.16
2022-10-11T04:50:23.549Z,100117.03
2022-10-11T04:52:26.071Z,100126.84
2022-10-11T04:54:28.312Z,100122.16
2022-10-11T04:56:30.813Z,100122.16
2022-10-11T04:58:35.301Z,100119.50
2022-10-11T05:00:42.047Z,100124.75
2022-10-11T05:02:44.234Z,100121.09
2022-10-11T05:04:46.387Z,100124.28
2022-10-11T05:06:48.449Z,100123.31
2022-10-11T05:08:51.049Z,100135.81
2022-10-11T05:11:00.191Z,100139.59
2022-10-11T05:13:02.237Z,100133.34
2022-10-11T05:15:04.554Z,100128.84
2022-10-11T05:17:06.460Z,100135.44
2022-10-11T05:19:08.608Z,100135.53
2022-10-11T05:25:04.383Z,100135.38
2022-10-11T05:27:56.837Z,100134.97
2022-10-11T05:29:58.843Z,100131.69
2022-10-11T05:32:00.833Z,100129.25
2022-10-11T05:34:06.149Z,100139.13
2022-10-11T05:36:09.676Z,100139.06
2022-10-11T05:38:11.903Z,100142.53
2022-10-11T05:40:13.849Z,100151.41
2022-10-11T05:42:15.959Z,100149.97
2022-10-11T05:44:17.960Z,100155.47
2022-10-11T05:46:20.042Z,100155.56
2022-10-11T05:48:22.308Z,100158.91
2022-10-11T05:50:24.654Z,100158.69
2022-10-11T05:52:26.755Z,100156.09
2022-10-11T05:54:52.966Z,100163.53
2022-10-11T05:56:55.172Z,100162.56
2022-10-11T05:59:02.019Z,100170.28
2022-10-11T06:01:04.434Z,100168.38
2022-10-11T06:03:08.034Z,100170.06
2022-10-11T06:05:10.183Z,100173.91
2022-10-11T06:07:11.983Z,100165.38
2022-10-11T06:09:15.149Z,100168.94
2022-10-11T06:11:22.685Z,100167.91
2022-10-11T06:13:24.680Z,100171.31
2022-10-11T06:15:26.738Z,100182.13
2022-10-11T06:17:29.292Z,100169.19
2022-10-11T06:19:31.653Z,100169.19
2022-10-11T06:21:33.592Z,100168.97
2022-10-11T06:23:35.821Z,100171.50
2022-10-11T06:25:37.749Z,100173.16
2022-10-11T06:27:39.806Z,100175.53
2022-10-11T06:29:41.545Z,100179.75
2022-10-11T06:31:43.555Z,100175.81
2022-10-11T06:33:45.460Z,100175.56
2022-10-11T06:35:47.412Z,100180.31
2022-10-11T06:37:49.259Z,100183.47
2022-10-11T06:39:51.322Z,100185.69
2022-10-11T06:41:53.245Z,100179.28
2022-10-11T06:43:55.892Z,100187.50
2022-10-11T06:46:00.073Z,100186.19
2022-10-11T06:48:02.245Z,100185.16
2022-10-11T06:50:05.724Z,100191.00
2022-10-11T06:52:07.637Z,100194.28
2022-10-11T06:54:09.750Z,100182.09
2022-10-11T06:56:12.964Z,100188.41
2022-10-11T06:58:15.009Z,100194.63
2022-10-11T07:00:19.939Z,100191.47
2022-10-11T07:02:22.156Z,100195.00
2022-10-11T07:04:24.138Z,100192.53
2022-10-11T07:06:28.658Z,100192.09
2022-10-11T07:08:31.185Z,100193.44
2022-10-11T07:10:33.344Z,100200.72
2022-10-11T07:12:35.578Z,100193.25
2022-10-11T07:14:37.636Z,100199.66
2022-10-11T07:16:39.920Z,100196.56
2022-10-11T07:18:42.035Z,100199.41
2022-10-11T07:20:43.879Z,100190.38
2022-10-11T07:22:45.889Z,100191.06
2022-10-11T07:24:49.414Z,100191.75
2022-10-11T07:26:51.861Z,100195.06
2022-10-11T07:28:54.136Z,100200.34
2022-10-11T07:30:57.219Z,100199.19
2022-10-11T07:32:59.163Z,100197.88
2022-10-11T07:35:01.586Z,100195.94
2022-10-11T07:37:03.577Z,100191.59
2022-10-11T07:39:07.166Z,100198.50
2022-10-11T07:41:10.291Z,100199.09
2022-10-11T07:43:13.525Z,100195.31
2022-10-11T07:45:15.814Z,100199.03
2022-10-11T07:47:18.027Z,100194.84
2022-10-11T07:49:20.052Z,100200.16
2022-10-11T07:51:23.604Z,100199.69
2022-10-11T07:53:25.567Z,100193.78
2022-10-11T07:55:30.168Z,100196.09
2022-10-11T07:57:32.434Z,100198.81
2022-10-11T07:59:34.760Z,100198.56
2022-10-11T08:01:37.041Z,100200.13
2022-10-11T08:03:39.141Z,100204.31
2022-10-11T08:05:41.649Z,100208.91
2022-10-11T08:07:43.821Z,100202.88
2022-10-11T08:09:46.304Z,100214.47
2022-10-11T08:11:48.380Z,100206.19
2022-10-11T08:13:50.650Z,100204.88
2022-10-11T08:15:52.907Z,100199.03
2022-10-11T08:17:55.459Z,100213.09
2022-10-11T08:19:58.269Z,100201.72
2022-10-11T08:22:00.707Z,100202.28
2022-10-11T08:24:04.649Z,100203.94
2022-10-11T08:26:07.871Z,100196.25
2022-10-11T08:28:15.983Z,100194.50
2022-10-11T08:30:18.300Z,100199.34
2022-10-11T08:32:20.653Z,100199.06
2022-10-11T08:34:23.151Z,100201.91
2022-10-11T08:36:25.623Z,100205.22
2022-10-11T08:38:27.695Z,100207.03
2022-10-11T08:40:34.996Z,100204.91
2022-10-11T08:42:48.219Z,100210.16
2022-10-11T08:45:12.600Z,100214.16
2022-10-11T08:47:23.820Z,100214.44
2022-10-11T08:49:30.528Z,100211.91
2022-10-11T08:51:40.014Z,100209.06
2022-10-11T08:53:56.532Z,100212.28
2022-10-11T08:55:59.099Z,100208.38
2022-10-11T08:58:01.760Z,100207.03
2022-10-11T09:00:18.720Z,100212.38
2022-10-11T09:03:06.537Z,100209.84
2022-10-11T09:05:05.082Z,100213.69
2022-10-11T09:07:34.334Z,100212.25
2022-10-11T09:09:50.130Z,100210.09
2022-10-11T09:11:55.095Z,100210.03
2022-10-11T09:14:20.824Z,100213.63
2022-10-11T09:16:46.000Z,100214.84
2022-10-11T09:19:12.327Z,100214.19
2022-10-11T09:21:29.180Z,100216.41
2022-10-11T09:23:51.884Z,100218.63
2022-10-11T09:26:01.276Z,100216.09
2022-10-11T09:28:36.986Z,100213.25
2022-10-11T09:30:49.483Z,100218.31
2022-10-11T09:33:33.034Z,100213.53
2022-10-11T09:35:43.425Z,100213.22
2022-10-11T09:37:54.316Z,100213.22
2022-10-11T09:40:17.381Z,100220.22
2022-10-11T09:42:19.489Z,100208.09
2022-10-11T09:44:37.096Z,100212.47
2022-10-11T09:46:42.626Z,100207.91
2022-10-11T09:48:44.904Z,100206.72
2022-10-11T09:50:48.218Z,100211.00
2022-10-11T09:52:52.725Z,100207.06
2022-10-11T09:54:58.167Z,100201.38
2022-10-11T09:57:00.209Z,100208.41
2022-10-11T09:59:27.369Z,100209.16
2022-10-11T10:01:31.179Z,100209.44
2022-10-11T10:03:42.465Z,100209.88
2022-10-11T10:05:44.559Z,100207.06
2022-10-11T10:08:11.969Z,100204.41
2022-10-11T10:10:43.728Z,100210.66
2022-10-11T10:12:56.037Z,100206.94
2022-10-11T10:15:08.156Z,100207.06
2022-10-11T10:17:18.245Z,100206.94
2022-10-11T10:19:21.811Z,100202.81
2022-10-11T10:21:33.443Z,100202.72
2022-10-11T10:23:37.571Z,100197.78
2022-10-11T10:25:43.513Z,100201.63
2022-10-11T10:28:00.315Z,100201.25
2022-10-11T10:30:08.148Z,100199.97
2022-10-11T10:32:23.727Z,100198.53
2022-10-11T10:34:33.346Z,100197.44
2022-10-11T10:36:40.032Z,100200.59
2022-10-11T10:39:32.944Z,100201.28
2022-10-11T10:41:36.161Z,100197.88
2022-10-11T10:43:40.249Z,100196.03
2022-10-11T10:46:36.880Z,100193.19
2022-10-11T10:51:28.183Z,100196.31
2022-10-11T10:53:39.801Z,100193.38
2022-10-11T10:55:48.341Z,100192.91
2022-10-11T10:58:07.323Z,100187.22
2022-10-11T11:00:23.758Z,100187.75
2022-10-11T11:02:49.676Z,100193.00
2022-10-11T11:05:21.242Z,100185.56
2022-10-11T11:07:23.585Z,100187.06
2022-10-11T11:09:41.415Z,100186.84
2022-10-11T11:11:49.605Z,100183.88
2022-10-11T11:14:19.742Z,100183.34
2022-10-11T11:16:42.859Z,100184.09
2022-10-11T11:18:56.244Z,100191.22
2022-10-11T11:21:31.832Z,100193.72
2022-10-11T11:23:40.075Z,100185.94
2022-10-11T11:26:02.675Z,100187.56
2022-10-11T11:28:10.600Z,100173.28
2022-10-11T11:30:20.707Z,100180.75
2022-10-11T11:32:43.417Z,100173.91
2022-10-11T11:34:58.687Z,100170.63
2022-10-11T11:37:05.576Z,100172.91
2022-10-11T11:39:17.785Z,100169.94
2022-10-11T11:41:26.139Z,100168.59
2022-10-11T11:43:53.511Z,100170.47
2022-10-11T11:45:59.587Z,100170.47
2022-10-11T11:48:07.086Z,100166.09
2022-10-11T11:50:28.598Z,100170.03
2022-10-11T11:52:41.382Z,100169.03
2022-10-11T11:55:09.678Z,100165.81
2022-10-11T11:57:29.998Z,100162.19
2022-10-11T12:00:05.641Z,100169.41
2022-10-11T12:02:25.435Z,100157.81
2022-10-11T12:04:37.260Z,100153.63
2022-10-11T12:06:52.431Z,100158.59
2022-10-11T12:09:17.161Z,100152.91
2022-10-11T12:11:39.926Z,100151.28
2022-10-11T12:13:44.421Z,100149.59
2022-10-11T12:16:00.345Z,100161.66
2022-10-11T12:18:13.556Z,100152.06
2022-10-11T12:20:26.066Z,100153.19
2022-10-11T12:22:28.138Z,100151.84
2022-10-11T12:24:57.048Z,100145.50
2022-10-11T12:26:59.820Z,100149.84
2022-10-11T12:29:06.392Z,100149.50
2022-10-11T12:31:27.219Z,100147.72
2022-10-11T12:33:33.253Z,100146.50
2022-10-11T12:35:36.975Z,100146.16
2022-10-11T12:37:38.880Z,100146.66
2022-10-11T12:39:57.115Z,100143.78
2022-10-11T12:42:19.856Z,100139.06
2022-10-11T12:44:26.519Z,100134.34
2022-10-11T12:46:28.542Z,100143.19
2022-10-11T12:48:45.312Z,100142.56
2022-10-11T12:51:10.058Z,100135.31
2022-10-11T12:53:17.947Z,100138.06
2022-10-11T12:55:35.011Z,100136.22
2022-10-11T12:57:52.139Z,100144.53
2022-10-11T12:59:54.473Z,100133.47
2022-10-11T13:02:00.143Z,100128.88
2022-10-11T13:04:08.310Z,100130.84
2022-10-11T13:06:25.160Z,100131.59
2022-10-11T13:08:34.800Z,100133.97
2022-10-11T13:10:44.776Z,100129.47
2022-10-11T13:13:20.105Z,100135.59
2022-10-11T13:15:27.210Z,100129.00
2022-10-11T13:17:38.163Z,100120.16
2022-10-11T13:21:54.508Z,100125.63
2022-10-11T13:24:03.504Z,100123.75
2022-10-11T13:26:05.546Z,100127.59
2022-10-11T13:28:09.338Z,100129.00
2022-10-11T13:30:38.914Z,100125.13
2022-10-11T13:32:43.213Z,100121.50
2022-10-11T13:34:47.982Z,100117.75
2022-10-11T13:36:56.142Z,100123.38
2022-10-11T13:39:00.281Z,100126.63
2022-10-11T13:41:06.120Z,100121.16
2022-10-11T13:43:08.747Z,100129.22
2022-10-11T13:45:14.361Z,100121.41
2022-10-11T13:47:21.064Z,100121.25
2022-10-11T13:49:37.793Z,100117.03
2022-10-11T13:51:39.795Z,100122.03
2022-10-11T13:54:01.113Z,100116.91
2022-10-11T13:56:06.257Z,100126.88
2022-10-11T13:58:28.369Z,100118.78
2022-10-11T14:00:40.264Z,100117.03
2022-10-11T14:03:15.405Z,100120.75
2022-10-11T14:05:38.907Z,100108.31
2022-10-11T14:07:41.041Z,100123.50
2022-10-11T14:09:47.311Z,100116.28
2022-10-11T14:11:50.364Z,100127.50
2022-10-11T14:13:52.273Z,100123.13
2022-10-11T14:16:32.702Z,100122.38
2022-10-11T14:18:34.747Z,100119.75
2022-10-11T14:20:39.918Z,100113.75
2022-10-11T14:22:42.085Z,100108.03
2022-10-11T14:24:48.080Z,100117.59
2022-10-11T14:26:53.139Z,100117.25
2022-10-11T14:29:02.218Z,100114.25
2022-10-11T14:31:05.036Z,100111.38
2022-10-11T14:33:07.377Z,100115.13
2022-10-11T14:35:22.024Z,100116.50
2022-10-11T14:37:24.676Z,100107.16
2022-10-11T14:39:29.729Z,100110.16
2022-10-11T14:41:35.356Z,100111.88
2022-10-11T14:43:37.620Z,100114.97
2022-10-11T14:45:39.573Z,100113.25
2022-10-11T14:47:43.078Z,100118.72
2022-10-11T14:49:45.552Z,100114.22
2022-10-11T14:51:50.065Z,100112.81
2022-10-11T14:53:52.033Z,100111.84
2022-10-11T14:55:55.104Z,100115.81
2022-10-11T14:57:57.589Z,100126.13
2022-10-11T14:59:59.500Z,100116.16
2022-10-11T15:02:02.307Z,100119.41
2022-10-11T15:04:04.838Z,100121.25
2022-10-11T15:06:11.024Z,100116.75
2022-10-11T15:08:15.105Z,100123.56
2022-10-11T15:10:29.207Z,100118.56
2022-10-11T15:12:32.861Z,100118.91
2022-10-11T15:14:35.302Z,100121.75
2022-10-11T15:16:39.354Z,100121.91
2022-10-11T15:18:41.709Z,100123.25
2022-10-11T15:20:46.303Z,100131.78
2022-10-11T15:22:48.790Z,100129.41
2022-10-11T15:24:51.904Z,100139.72
2022-10-11T15:26:54.010Z,100139.06
2022-10-11T15:28:57.379Z,100131.31
2022-10-11T15:31:00.640Z,100137.91
2022-10-11T15:33:06.418Z,100142.59
2022-10-11T15:35:09.125Z,100150.03
2022-10-11T15:37:11.159Z,100142.16
2022-10-11T15:39:34.353Z,100142.22
2022-10-11T15:41:36.618Z,100140.53
2022-10-11T15:43:39.218Z,100142.63
2022-10-11T15:45:44.106Z,100146.13
2022-10-11T15:47:47.071Z,100139.03
2022-10-11T15:49:49.164Z,100144.22
2022-10-11T15:51:51.401Z,100144.22
2022-10-11T15:53:53.607Z,100149.88
2022-10-11T15:56:02.550Z,100144.41
2022-10-11T15:58:05.307Z,100149.47
2022-10-11T16:00:07.976Z,100155.56
2022-10-11T16:02:15.294Z,100159.94
2022-10-11T16:04:17.605Z,100157.34
2022-10-11T16:06:20.226Z,100154.47
2022-10-11T16:08:22.915Z,100156.25
2022-10-11T16:10:28.429Z,100157.97
2022-10-11T16:12:31.114Z,100156.66
2022-10-11T16:14:33.262Z,100154.16
2022-10-11T16:16:35.599Z,100155.03
2022-10-11T16:18:37.962Z,100158.84
2022-10-11T16:20:41.829Z,100160.94
2022-10-11T16:22:45.696Z,100166.19
2022-10-11T16:24:50.107Z,100159.19
2022-10-11T16:26:52.157Z,100167.50
2022-10-11T16:28:54.308Z,100167.84
2022-10-11T16:30:56.946Z,100167.94
2022-10-11T16:32:59.067Z,100168.72
2022-10-11T16:35:01.063Z,100173.84
2022-10-11T16:37:03.072Z,100174.72
2022-10-11T16:39:09.245Z,100171.66
2022-10-11T16:41:11.292Z,100176.69
2022-10-11T16:43:13.213Z,100183.25
2022-10-11T16:45:16.821Z,100182.38
2022-10-11T16:47:19.416Z,100184.00
2022-10-11T16:49:24.763Z,100181.19
2022-10-11T16:51:26.718Z,100184.88
2022-10-11T16:53:28.730Z,100186.19
2022-10-11T16:55:30.829Z,100196.16
2022-10-11T16:57:32.836Z,100189.59
2022-10-11T16:59:38.335Z,100192.44
2022-10-11T17:01:40.721Z,100189.47
2022-10-11T17:03:42.774Z,100191.78
2022-10-11T17:05:44.895Z,100189.28
2022-10-11T17:07:46.977Z,100192.97
2022-10-11T17:09:49.716Z,100188.38
2022-10-11T17:11:52.311Z,100192.19
2022-10-11T17:13:54.400Z,100195.84
2022-10-11T17:15:56.753Z,100199.31
2022-10-11T17:17:58.929Z,100196.56
2022-10-11T17:20:02.418Z,100196.69
2022-10-11T17:22:04.572Z,100194.75
2022-10-11T17:24:07.258Z,100200.31
2022-10-11T17:26:14.954Z,100193.09
2022-10-11T17:28:17.089Z,100196.91
2022-10-11T17:30:19.123Z,100203.78
2022-10-11T17:32:21.064Z,100200.28
2022-10-11T17:34:22.873Z,100201.28
2022-10-11T17:36:28.008Z,100204.66
2022-10-11T17:38:30.028Z,100201.28
2022-10-11T17:40:32.061Z,100204.00
2022-10-11T17:42:33.910Z,100202.38
2022-10-11T17:44:36.270Z,100204.00
2022-10-11T17:46:39.057Z,100202.03
2022-10-11T17:48:41.491Z,100207.38
2022-10-11T17:50:45.884Z,100209.47
2022-10-11T17:52:51.748Z,100211.44
2022-10-11T17:54:53.906Z,100204.19
2022-10-11T17:56:56.152Z,100206.84
2022-10-11T17:59:27.787Z,100206.50
2022-10-11T18:01:29.897Z,100207.91
2022-10-11T18:03:32.227Z,100204.41
2022-10-11T18:05:34.417Z,100198.97
2022-10-11T18:07:36.644Z,100209.78
2022-10-11T18:09:38.566Z,100207.16
2022-10-11T18:11:40.882Z,100206.19
2022-10-11T18:13:46.515Z,100208.25
2022-10-11T18:15:53.346Z,100205.50
2022-10-11T18:17:57.751Z,100212.75
2022-10-11T18:20:00.100Z,100209.00
2022-10-11T18:22:06.802Z,100205.41
2022-10-11T18:24:14.996Z,100211.84
2022-10-11T18:26:20.091Z,100218.06
2022-10-11T18:28:22.246Z,100214.47
2022-10-11T18:30:24.102Z,100211.09
2022-10-11T18:32:26.200Z,100211.09
2022-10-11T18:34:28.391Z,100212.19
2022-10-11T18:36:31.324Z,100211.28
2022-10-11T18:38:34.449Z,100223.19
2022-10-11T18:40:42.213Z,100207.81
2022-10-11T18:43:25.374Z,100217.81
2022-10-11T18:45:27.118Z,100217.09
2022-10-11T18:47:28.964Z,100215.31
2022-10-11T18:49:30.815Z,100217.09
2022-10-11T18:51:36.240Z,100218.91
2022-10-11T18:53:38.604Z,100213.56
2022-10-11T18:55:40.709Z,100215.44
2022-10-11T18:57:42.743Z,100218.16
2022-10-11T18:59:44.988Z,100220.97
2022-10-11T19:01:48.297Z,100219.22
2022-10-11T19:03:52.845Z,100219.31
2022-10-11T19:05:55.035Z,100220.19
2022-10-11T19:07:57.278Z,100220.31
2022-10-11T19:10:00.514Z,100214.38
2022-10-11T19:12:02.566Z,100216.13
2022-10-11T19:14:11.172Z,100222.88
2022-10-11T19:16:16.824Z,100212.75
2022-10-11T19:18:20.573Z,100222.88
2022-10-11T19:20:22.515Z,100211.97
2022-10-11T19:22:26.594Z,100223.88
2022-10-11T19:24:30.168Z,100225.81
2022-10-11T19:26:34.880Z,100218.72
2022-10-11T19:32:40.505Z,100227.50
2022-10-11T19:34:42.616Z,100226.84
2022-10-11T19:36:50.114Z,100222.19
2022-10-11T19:38:56.948Z,100221.31
2022-10-11T19:41:01.250Z,100232.53
2022-10-11T19:43:03.370Z,100227.72
2022-10-11T19:45:06.076Z,100229.59
2022-10-11T19:47:08.634Z,100226.19
2022-10-11T19:49:12.117Z,100235.34
2022-10-11T19:51:16.601Z,100226.28
2022-10-11T19:53:18.768Z,100229.09
2022-10-11T19:55:21.100Z,100238.19
2022-10-11T19:57:23.055Z,100221.50
2022-10-11T19:59:25.317Z,100227.16
2022-10-11T20:01:30.485Z,100229.09
2022-10-11T20:03:33.253Z,100229.22
2022-10-11T20:05:38.163Z,100236.44
2022-10-11T20:07:40.138Z,100229.63
2022-10-11T20:09:42.243Z,100223.22
2022-10-11T20:11:44.350Z,100235.28
2022-10-11T20:13:47.073Z,100231.78
2022-10-11T20:15:49.338Z,100232.69
2022-10-11T20:17:51.901Z,100238.88
2022-10-11T20:19:54.749Z,100243.38
2022-10-11T20:21:57.144Z,100237.94
2022-10-11T20:24:02.123Z,100240.75
2022-10-11T20:26:07.608Z,100240.94
2022-10-11T20:28:09.774Z,100238.13
2022-10-11T20:30:12.484Z,100234.50
2022-10-11T20:32:14.622Z,100231.13
2022-10-11T20:34:17.024Z,100232.13
2022-10-11T20:36:20.671Z,100230.34
2022-10-11T20:38:22.678Z,100227.63
2022-10-11T20:40:24.649Z,100234.84
2022-10-11T20:42:29.705Z,100228.41
2022-10-11T20:44:32.001Z,100233.75
2022-10-11T20:46:38.431Z,100226.84
2022-10-11T20:48:41.310Z,100225.88
2022-10-11T20:50:46.355Z,100225.09
2022-10-11T20:52:48.513Z,100230.34
2022-10-11T20:54:50.838Z,100227.81
2022-10-11T20:56:53.111Z,100226.09
2022-10-11T20:58:57.660Z,100217.22
2022-10-11T21:00:59.717Z,100223.66
2022-10-11T21:03:03.113Z,100232.22
2022-10-11T21:05:06.776Z,100229.41
2022-10-11T21:07:09.172Z,100227.47
2022-10-11T21:09:15.453Z,100234.56
2022-10-11T21:11:18.877Z,100237.28
2022-10-11T21:13:21.362Z,100237.28
2022-10-11T21:15:23.972Z,100229.88
2022-10-11T21:17:25.925Z,100234.66
2022-10-11T21:19:28.398Z,100225.69
2022-10-11T21:21:30.716Z,100236.03
2022-10-11T21:23:33.035Z,100230.69
2022-10-11T21:25:36.314Z,100229.69
2022-10-11T21:27:38.666Z,100232.44
2022-10-11T21:29:40.719Z,100229.03
2022-10-11T21:31:42.849Z,100233.28
2022-10-11T21:33:45.479Z,100238.75
2022-10-11T21:35:47.950Z,100238.28
2022-10-11T21:37:50.324Z,100239.16
2022-10-11T21:39:52.396Z,100240.03
2022-10-11T21:41:54.455Z,100246.34
2022-10-11T21:43:57.141Z,100243.84
2022-10-11T21:45:59.175Z,100243.13
2022-10-11T21:48:01.317Z,100245.28
2022-10-11T21:50:03.764Z,100241.19
2022-10-11T21:52:06.346Z,100244.50
2022-10-11T21:54:08.979Z,100239.81
2022-10-11T21:56:11.328Z,100239.81
2022-10-11T21:58:16.286Z,100241.47
2022-10-11T22:00:18.726Z,100245.47
2022-10-11T22:02:20.780Z,100248.09
2022-10-11T22:04:23.398Z,100246.06
2022-10-11T22:06:27.894Z,100247.81
2022-10-11T22:08:30.530Z,100249.50
2022-10-11T22:10:34.929Z,100241.22
2022-10-11T22:12:37.840Z,100241.22
2022-10-11T22:14:40.095Z,100240.50
2022-10-11T22:16:42.116Z,100245.06
2022-10-11T22:18:44.417Z,100235.94
2022-10-11T22:20:46.497Z,100239.91
2022-10-11T22:22:48.852Z,100238.84
2022-10-11T22:24:50.886Z,100236.03
2022-10-11T22:26:52.987Z,100229.72
2022-10-11T22:28:55.116Z,100239.63
2022-10-11T22:30:57.329Z,100231.66
2022-10-11T22:32:59.523Z,100228.16
2022-10-11T22:35:01.733Z,100233.72
2022-10-11T22:37:03.732Z,100238.25
2022-10-11T22:39:08.313Z,100235.75
2022-10-11T22:41:10.978Z,100231.16
2022-10-11T22:43:13.107Z,100227.78
2022-10-11T22:45:15.528Z,100225.34
2022-10-11T22:47:17.675Z,100220.88
2022-10-11T22:49:19.552Z,100230.19
2022-10-11T22:51:21.594Z,100225.81
2022-10-11T22:53:23.941Z,100222.22
2022-10-11T22:55:29.108Z,100229.75
2022-10-11T22:57:31.120Z,100228.53
2022-10-11T22:59:33.237Z,100225.03
2022-10-11T23:01:35.520Z,100231.56
2022-10-11T23:03:38.564Z,100231.47
2022-10-11T23:05:40.741Z,100229.81
2022-10-11T23:07:42.729Z,100229.16
2022-10-11T23:09:44.905Z,100223.78
2022-10-11T23:11:46.992Z,100229.44
2022-10-11T23:13:49.397Z,100232.16
2022-10-11T23:15:51.421Z,100233.13
2022-10-11T23:17:53.467Z,100239.53
2022-10-11T23:19:55.638Z,100238.09
2022-10-11T23:21:57.749Z,100233.44
2022-10-11T23:23:59.713Z,100236.25
2022-10-11T23:26:07.184Z,100234.38
2022-10-11T23:28:09.547Z,100234.59
2022-10-11T23:30:12.639Z,100239.03
2022-10-11T23:32:14.673Z,100237.69
2022-10-11T23:34:16.709Z,100240.22
2022-10-11T23:36:25.197Z,100248.75
2022-10-11T23:38:32.654Z,100242.25
2022-10-11T23:40:35.085Z,100246.16
2022-10-11T23:42:37.734Z,100248.09
2022-10-11T23:44:40.195Z,100245.56
2022-10-11T23:46:42.390Z,100243.19
2022-10-11T23:48:44.363Z,100247.56
2022-10-11T23:50:46.522Z,100249.63
2022-10-11T23:52:48.979Z,100249.34
2022-10-11T23:54:51.078Z,100246.50
2022-10-11T23:56:53.122Z,100250.28
2022-10-11T23:58:55.195Z,100248.38
